createdAt,value
2019-04-26T14:26:39.835Z,30.72
2019-04-26T14:29:15.160Z,33.53
2019-04-26T14:31:51.264Z,35.63
2019-04-26T14:34:19.879Z,34.70
2019-04-26T14:37:05.586Z,34.03
2019-04-26T14:39:38.225Z,36.70
2019-04-26T14:41:59.225Z,32.25
2019-04-26T14:47:13.210Z,30.48
2019-04-26T14:49:43.001Z,31.40
2019-04-26T14:52:14.078Z,32.95
2019-04-26T14:54:47.583Z,31.65
2019-04-26T14:57:28.451Z,32.83
2019-04-26T15:00:04.984Z,34.00
2019-04-26T15:02:35.080Z,35.03
2019-04-26T15:05:12.116Z,34.33
2019-04-26T15:07:51.111Z,35.33
2019-04-26T15:10:21.518Z,35.45
2019-04-26T15:13:05.834Z,35.35
2019-04-26T15:15:32.068Z,37.63
2019-04-26T15:18:02.963Z,40.98
2019-04-26T15:20:35.223Z,40.05
2019-04-26T15:23:08.621Z,40.23
2019-04-26T15:25:48.457Z,39.80
2019-04-26T15:28:19.269Z,40.23
2019-04-26T15:30:54.218Z,36.53
2019-04-26T15:33:25.861Z,40.73
2019-04-26T15:38:26.585Z,37.33
2019-04-26T15:40:59.371Z,39.45
2019-04-26T15:43:33.517Z,39.38
2019-04-26T15:46:08.190Z,38.85
2019-04-26T15:48:40.069Z,42.38
2019-04-26T15:51:20.137Z,40.40
2019-04-26T15:53:57.014Z,39.10
2019-04-26T15:56:28.542Z,44.77
2019-04-26T16:08:15.757Z,42.90
2019-04-26T16:10:53.180Z,38.23
2019-04-26T16:13:25.966Z,39.00
2019-04-26T16:15:59.567Z,37.48
2019-04-26T16:18:32.420Z,37.85
2019-04-26T16:21:04.931Z,42.33
2019-04-26T16:23:41.597Z,38.73
2019-04-26T16:26:15.378Z,36.73
2019-04-26T16:28:48.070Z,44.58
2019-04-26T16:31:29.246Z,41.08
2019-04-26T16:34:10.919Z,43.45
2019-04-26T16:36:45.305Z,40.70
2019-04-26T16:39:17.130Z,39.25
2019-04-26T16:41:49.803Z,40.90
2019-04-26T16:44:29.557Z,40.63
2019-04-26T16:47:03.580Z,48.35
2019-04-26T16:49:41.935Z,49.03
2019-04-26T16:52:13.583Z,41.55
2019-04-26T16:54:52.997Z,44.55
2019-04-26T16:57:25.749Z,41.63
2019-04-26T17:00:00.237Z,43.90
2019-04-26T17:02:36.463Z,42.35
2019-04-26T17:05:17.671Z,40.92
2019-04-26T17:07:53.751Z,40.15
2019-04-26T17:10:24.789Z,40.15
2019-04-26T17:12:57.950Z,40.00
2019-04-26T17:15:32.625Z,39.55
2019-04-26T17:18:14.712Z,39.13
2019-04-26T17:20:55.536Z,38.73
2019-04-26T17:23:33.418Z,40.33
2019-04-26T17:26:06.920Z,38.70
2019-04-26T17:28:39.451Z,37.17
2019-04-26T17:31:12.550Z,37.98
2019-04-26T17:33:45.855Z,40.17
2019-04-26T17:36:19.147Z,40.60
2019-04-26T17:38:56.159Z,35.68
2019-04-26T17:41:31.086Z,36.65
2019-04-26T17:44:10.617Z,38.35
2019-04-26T17:46:42.015Z,35.52
2019-04-26T17:49:21.418Z,39.33
2019-04-26T17:51:57.854Z,39.20
2019-04-26T17:54:46.187Z,34.88
2019-04-26T17:57:14.325Z,39.15
2019-04-26T18:00:06.452Z,36.28
2019-04-26T18:02:41.325Z,39.65
2019-04-26T18:05:05.620Z,35.52
2019-04-26T18:07:55.874Z,38.73
2019-04-26T18:10:21.755Z,35.98
2019-04-26T18:12:58.024Z,34.25
2019-04-26T18:15:30.763Z,43.33
2019-04-26T18:18:05.104Z,39.15
2019-04-26T18:20:41.442Z,42.53
2019-04-26T18:23:15.443Z,38.05
2019-04-26T18:25:48.658Z,42.10
2019-04-26T18:28:28.355Z,40.70
2019-04-26T18:31:06.560Z,38.60
2019-04-26T18:33:46.427Z,40.28
2019-04-26T18:36:19.309Z,37.78
2019-04-26T18:38:53.648Z,40.50
2019-04-26T18:41:28.681Z,38.70
2019-04-26T18:44:06.047Z,38.25
2019-04-26T18:46:44.834Z,40.05
2019-04-26T18:49:20.662Z,36.83
2019-04-26T18:51:50.437Z,39.20
2019-04-26T18:54:26.197Z,34.48
2019-04-26T18:57:00.681Z,39.00
2019-04-26T18:59:44.788Z,35.55
2019-04-26T19:02:23.539Z,40.38
2019-04-26T19:04:55.871Z,36.75
2019-04-26T19:07:32.355Z,35.52
2019-04-26T19:10:05.445Z,38.42
2019-04-26T19:12:41.219Z,33.85
2019-04-26T19:15:21.833Z,37.00
2019-04-26T19:17:55.914Z,35.00
2019-04-26T19:20:30.385Z,37.73
2019-04-26T19:23:05.551Z,36.77
2019-04-26T19:25:41.503Z,36.45
2019-04-26T19:28:14.836Z,36.50
2019-04-26T19:30:50.854Z,34.65
2019-04-26T19:33:22.127Z,36.48
2019-04-26T19:35:55.340Z,32.38
2019-04-26T19:38:28.049Z,33.28
2019-04-26T19:41:02.681Z,31.57
2019-04-26T19:43:39.240Z,29.00
2019-04-26T19:46:16.918Z,28.45
2019-04-26T19:48:49.493Z,27.77
2019-04-26T19:51:27.101Z,26.17
2019-04-26T19:53:59.587Z,25.90
2019-04-26T19:56:34.016Z,26.68
2019-04-26T19:59:07.099Z,24.18
2019-04-26T20:01:41.972Z,25.05
2019-04-26T20:04:15.862Z,24.55
2019-04-26T20:06:54.076Z,24.02
2019-04-26T20:09:26.386Z,23.40
2019-04-26T20:11:59.217Z,23.27
2019-04-26T20:14:49.179Z,21.90
2019-04-26T20:17:21.818Z,22.62
2019-04-26T20:20:02.043Z,22.25
2019-04-26T20:22:36.276Z,21.27
2019-04-26T20:25:09.119Z,21.60
2019-04-26T20:27:42.984Z,20.55
2019-04-26T20:30:27.847Z,21.00
2019-04-26T20:33:01.752Z,19.65
2019-04-26T20:35:34.455Z,19.50
2019-04-26T20:38:07.808Z,20.12
2019-04-26T20:40:43.524Z,19.67
2019-04-26T20:43:25.807Z,18.62
2019-04-26T20:46:08.724Z,18.02
2019-04-26T20:48:25.591Z,18.95
2019-04-26T20:50:59.554Z,21.65
2019-04-26T20:53:39.925Z,19.52
2019-04-26T20:56:09.458Z,17.48
2019-04-26T20:58:43.192Z,18.80
2019-04-26T21:01:28.987Z,18.73
2019-04-26T21:04:02.058Z,16.55
2019-04-26T21:06:43.581Z,17.00
2019-04-26T21:09:18.032Z,18.05
2019-04-26T21:11:51.661Z,19.02
2019-04-26T21:14:24.921Z,19.10
2019-04-26T21:16:58.189Z,18.85
2019-04-26T21:19:32.754Z,19.75
2019-04-26T21:22:05.317Z,17.57
2019-04-26T21:24:50.534Z,16.05
2019-04-26T21:27:25.897Z,19.35
2019-04-26T21:29:59.048Z,18.87
2019-04-26T21:32:35.472Z,19.62
2019-04-26T21:35:11.393Z,17.70
2019-04-26T21:37:49.453Z,18.17
2019-04-26T21:40:23.210Z,20.55
2019-04-26T21:42:59.591Z,20.17
2019-04-26T21:45:31.172Z,21.15
2019-04-26T21:48:06.835Z,19.90
2019-04-26T21:50:39.180Z,19.90
2019-04-26T21:53:13.343Z,20.35
2019-04-26T21:55:46.850Z,18.45
2019-04-26T21:58:19.668Z,21.20
2019-04-26T22:00:56.225Z,20.85
2019-04-26T22:03:29.822Z,22.67
2019-04-26T22:06:04.179Z,20.50
2019-04-26T22:08:38.269Z,20.17
2019-04-26T22:11:14.036Z,20.92
2019-04-26T22:13:47.111Z,19.98
2019-04-26T22:16:34.160Z,17.98
2019-04-26T22:19:08.745Z,18.20
2019-04-26T22:21:43.555Z,21.60
2019-04-26T22:24:17.904Z,21.73
2019-04-26T22:26:53.221Z,19.92
2019-04-26T22:29:25.833Z,16.40
2019-04-26T22:32:05.984Z,22.73
2019-04-26T22:34:41.317Z,22.20
2019-04-26T22:37:29.523Z,21.27
2019-04-26T22:39:55.991Z,18.48
2019-04-26T22:42:32.981Z,19.07
2019-04-26T22:45:09.362Z,19.73
2019-04-26T22:47:43.361Z,18.55
2019-04-26T22:50:21.029Z,19.25
2019-04-26T22:52:52.466Z,19.05
2019-04-26T22:55:27.480Z,20.35
2019-04-26T22:58:06.783Z,19.77
2019-04-26T23:00:43.609Z,16.55
2019-04-26T23:03:18.109Z,17.45
2019-04-26T23:05:53.328Z,19.80
2019-04-26T23:08:26.025Z,19.45
2019-04-26T23:11:02.438Z,18.77
2019-04-26T23:13:37.896Z,19.37
2019-04-26T23:16:14.452Z,19.90
2019-04-26T23:18:47.052Z,17.60
2019-04-26T23:21:24.889Z,18.67
2019-04-26T23:23:58.273Z,21.45
2019-04-26T23:26:37.482Z,20.00
2019-04-26T23:29:15.465Z,16.82
2019-04-26T23:31:50.334Z,17.77
2019-04-26T23:34:33.700Z,20.40
2019-04-26T23:37:06.539Z,21.15
2019-04-26T23:39:44.509Z,21.93
2019-04-26T23:42:16.384Z,18.80
2019-04-26T23:44:48.848Z,20.97
2019-04-26T23:47:23.723Z,22.02
2019-04-26T23:49:57.102Z,22.98
2019-04-26T23:52:30.169Z,17.10
2019-04-26T23:55:08.770Z,21.82
2019-04-26T23:57:41.108Z,23.98
